createdAt,value
2023-03-19T00:01:13.669Z,66.70
2023-03-19T00:03:40.233Z,66.50
2023-03-19T00:06:06.760Z,66.50
2023-03-19T00:08:33.271Z,66.70
2023-03-19T00:10:59.766Z,66.50
2023-03-19T00:13:26.267Z,66.50
2023-03-19T00:15:52.766Z,66.50
2023-03-19T00:18:19.264Z,66.60
2023-03-19T00:20:45.790Z,66.70
2023-03-19T00:23:12.310Z,66.40
2023-03-19T00:25:38.791Z,66.30
2023-03-19T00:28:05.301Z,66.10
2023-03-19T00:30:31.831Z,66.50
2023-03-19T00:32:58.383Z,66.00
2023-03-19T00:35:24.885Z,66.30
2023-03-19T00:37:51.420Z,66.50
2023-03-19T00:40:17.901Z,66.10
2023-03-19T00:42:44.407Z,66.30
2023-03-19T00:45:10.903Z,67.40
2023-03-19T00:47:37.385Z,66.70
2023-03-19T00:50:03.880Z,66.80
2023-03-19T00:52:30.362Z,67.10
2023-03-19T00:54:56.859Z,67.30
2023-03-19T00:57:23.365Z,67.10
2023-03-19T00:59:49.861Z,66.70
2023-03-19T01:02:16.350Z,66.70
2023-03-19T01:04:42.899Z,66.50
2023-03-19T01:07:09.444Z,66.80
2023-03-19T01:09:35.955Z,66.50
2023-03-19T01:12:02.437Z,66.30
2023-03-19T01:14:28.944Z,66.50
2023-03-19T01:16:55.431Z,66.70
2023-03-19T01:19:22.126Z,66.60
2023-03-19T01:21:48.604Z,66.80
2023-03-19T01:24:15.083Z,66.60
2023-03-19T01:26:41.568Z,66.90
2023-03-19T01:29:08.059Z,66.80
2023-03-19T01:31:34.614Z,66.90
2023-03-19T01:34:01.177Z,66.90
2023-03-19T01:36:27.651Z,67.00
2023-03-19T01:38:54.139Z,67.10
2023-03-19T01:41:20.613Z,67.10
2023-03-19T01:43:47.117Z,67.00
2023-03-19T01:46:13.655Z,66.70
2023-03-19T01:48:40.184Z,66.90
2023-03-19T01:51:06.684Z,66.80
2023-03-19T01:53:33.220Z,67.20
2023-03-19T01:55:59.773Z,66.90
2023-03-19T01:58:26.307Z,67.20
2023-03-19T02:00:52.797Z,67.10
2023-03-19T02:03:19.291Z,67.10
2023-03-19T02:05:45.769Z,67.10
2023-03-19T02:08:12.272Z,67.10
2023-03-19T02:10:38.783Z,67.00
2023-03-19T02:13:05.365Z,67.00
2023-03-19T02:15:31.853Z,67.00
2023-03-19T02:17:58.320Z,67.10
2023-03-19T02:20:24.807Z,67.10
2023-03-19T02:22:51.305Z,67.20
2023-03-19T02:25:17.797Z,67.00
2023-03-19T02:27:44.297Z,68.00
2023-03-19T02:30:10.810Z,67.10
2023-03-19T02:32:37.310Z,67.00
2023-03-19T02:35:03.816Z,67.10
2023-03-19T02:37:33.383Z,67.50
2023-03-19T02:40:00.111Z,67.40
2023-03-19T02:42:26.598Z,67.50
2023-03-19T02:44:53.075Z,67.60
2023-03-19T02:47:19.552Z,67.30
2023-03-19T02:49:51.157Z,67.50
2023-03-19T02:52:17.666Z,67.20
2023-03-19T02:54:44.170Z,67.50
2023-03-19T02:57:10.661Z,67.40
2023-03-19T02:59:37.148Z,67.40
2023-03-19T03:02:03.679Z,67.40
2023-03-19T03:04:30.216Z,67.10
2023-03-19T03:06:56.712Z,67.50
2023-03-19T03:09:23.234Z,67.30
2023-03-19T03:11:49.712Z,67.20
2023-03-19T03:14:16.214Z,67.20
2023-03-19T03:16:42.791Z,67.50
2023-03-19T03:19:09.328Z,67.20
2023-03-19T03:21:35.854Z,67.30
2023-03-19T03:24:02.362Z,67.20
2023-03-19T03:26:28.840Z,67.30
2023-03-19T03:28:55.370Z,67.50
2023-03-19T03:31:21.856Z,67.20
2023-03-19T03:33:48.371Z,67.40
2023-03-19T03:36:14.835Z,67.10
2023-03-19T03:38:41.345Z,67.40
2023-03-19T03:41:07.815Z,67.40
2023-03-19T03:43:34.301Z,67.70
2023-03-19T03:46:00.854Z,67.70
2023-03-19T03:48:27.374Z,67.40
2023-03-19T03:50:53.852Z,67.50
2023-03-19T03:53:20.339Z,67.50
2023-03-19T03:55:46.856Z,67.50
2023-03-19T03:58:13.338Z,67.40
2023-03-19T04:00:39.837Z,67.40
2023-03-19T04:03:06.390Z,67.30
2023-03-19T04:05:32.902Z,67.20
2023-03-19T04:07:59.401Z,67.20
2023-03-19T04:10:25.905Z,67.20
2023-03-19T04:12:52.381Z,67.30
2023-03-19T04:15:18.857Z,67.20
2023-03-19T04:17:45.357Z,67.30
2023-03-19T04:20:11.855Z,67.40
2023-03-19T04:22:38.347Z,67.50
2023-03-19T04:25:04.865Z,67.60
2023-03-19T04:27:31.320Z,67.40
2023-03-19T04:29:57.819Z,67.20
2023-03-19T04:32:24.329Z,67.40
2023-03-19T04:34:50.850Z,67.20
2023-03-19T04:37:17.327Z,67.60
2023-03-19T04:39:43.799Z,67.40
2023-03-19T04:42:10.268Z,67.60
2023-03-19T04:44:36.781Z,67.60
2023-03-19T04:47:03.244Z,67.50
2023-03-19T04:49:29.758Z,67.50
2023-03-19T04:51:56.229Z,67.60
2023-03-19T04:54:22.728Z,67.70
2023-03-19T04:56:49.223Z,67.80
2023-03-19T04:59:15.724Z,67.50
2023-03-19T05:01:42.279Z,67.50
2023-03-19T05:04:08.948Z,67.60
2023-03-19T05:06:35.480Z,68.50
2023-03-19T05:09:01.967Z,67.80
2023-03-19T05:11:28.459Z,67.80
2023-03-19T05:13:54.958Z,67.80
2023-03-19T05:16:21.501Z,67.80
2023-03-19T05:18:47.990Z,67.80
2023-03-19T05:21:14.479Z,67.90
2023-03-19T05:23:40.962Z,67.90
2023-03-19T05:26:07.437Z,67.90
2023-03-19T05:28:33.900Z,68.00
2023-03-19T05:31:00.441Z,67.80
2023-03-19T05:33:26.932Z,67.80
2023-03-19T05:35:53.518Z,67.70
2023-03-19T05:38:20.052Z,67.80
2023-03-19T05:40:46.564Z,67.90
2023-03-19T05:43:13.042Z,67.90
2023-03-19T05:45:39.565Z,67.90
2023-03-19T05:48:06.052Z,67.90
2023-03-19T05:50:32.707Z,68.10
2023-03-19T05:52:59.325Z,68.10
2023-03-19T05:55:25.838Z,68.10
2023-03-19T05:57:52.344Z,68.10
2023-03-19T06:00:18.847Z,68.10
2023-03-19T06:02:45.373Z,68.10
2023-03-19T06:05:11.923Z,68.30
2023-03-19T06:07:38.392Z,68.10
2023-03-19T06:10:09.308Z,68.20
2023-03-19T06:12:35.793Z,68.30
2023-03-19T06:15:02.280Z,68.00
2023-03-19T06:17:28.751Z,68.00
2023-03-19T06:19:55.230Z,68.10
2023-03-19T06:22:21.811Z,68.10
2023-03-19T06:24:48.273Z,68.20
2023-03-19T06:27:14.749Z,68.20
2023-03-19T06:29:41.223Z,68.10
2023-03-19T06:32:07.700Z,68.20
2023-03-19T06:34:34.181Z,68.30
2023-03-19T06:37:00.661Z,68.50
2023-03-19T06:39:27.167Z,68.50
2023-03-19T06:41:53.825Z,68.40
2023-03-19T06:44:20.336Z,68.60
2023-03-19T06:46:46.829Z,68.70
2023-03-19T06:49:13.320Z,68.70
2023-03-19T06:51:39.820Z,68.50
2023-03-19T06:54:06.302Z,68.60
2023-03-19T06:56:32.792Z,68.70
2023-03-19T06:58:59.281Z,68.90
2023-03-19T07:01:25.818Z,68.70
2023-03-19T07:03:52.462Z,68.80
2023-03-19T07:06:19.008Z,68.60
2023-03-19T07:08:45.510Z,69.00
2023-03-19T07:11:12.026Z,68.80
2023-03-19T07:13:38.503Z,68.90
2023-03-19T07:16:05.138Z,68.70
2023-03-19T07:18:31.724Z,68.80
2023-03-19T07:20:58.227Z,68.80
2023-03-19T07:23:24.713Z,68.70
2023-03-19T07:25:51.215Z,68.90
2023-03-19T07:28:17.713Z,68.40
2023-03-19T07:30:44.212Z,68.40
2023-03-19T07:33:10.745Z,68.80
2023-03-19T07:35:37.305Z,68.80
2023-03-19T07:38:03.817Z,69.00
2023-03-19T07:40:30.355Z,68.90
2023-03-19T07:42:56.865Z,69.00
2023-03-19T07:45:23.366Z,68.90
2023-03-19T07:47:50.434Z,69.00
2023-03-19T07:50:16.988Z,69.00
2023-03-19T07:52:43.497Z,69.00
2023-03-19T07:55:09.977Z,69.20
2023-03-19T07:57:36.468Z,69.30
2023-03-19T08:00:02.951Z,70.00
2023-03-19T08:02:29.473Z,69.30
2023-03-19T08:04:56.034Z,69.40
2023-03-19T08:07:22.593Z,69.20
2023-03-19T08:09:49.059Z,69.20
2023-03-19T08:12:15.541Z,69.00
2023-03-19T08:14:42.010Z,69.60
2023-03-19T08:17:08.603Z,69.40
2023-03-19T08:19:35.115Z,70.30
2023-03-19T08:22:01.603Z,69.20
2023-03-19T08:24:28.146Z,69.20
2023-03-19T08:26:54.664Z,69.30
2023-03-19T08:29:21.158Z,69.60
2023-03-19T08:31:47.656Z,70.00
2023-03-19T08:34:14.138Z,70.00
2023-03-19T08:36:40.650Z,70.10
2023-03-19T08:39:07.165Z,70.00
2023-03-19T08:41:33.666Z,70.00
2023-03-19T08:44:00.158Z,70.20
2023-03-19T08:46:26.682Z,69.80
2023-03-19T08:48:53.186Z,70.10
2023-03-19T08:51:19.675Z,71.00
2023-03-19T08:53:46.156Z,69.80
2023-03-19T08:56:12.646Z,70.10
2023-03-19T08:58:39.137Z,69.40
2023-03-19T09:01:05.620Z,69.90
2023-03-19T09:03:32.116Z,69.90
2023-03-19T09:05:58.602Z,69.80
2023-03-19T09:08:25.090Z,69.40
2023-03-19T09:10:51.641Z,70.10
2023-03-19T09:13:18.124Z,69.30
2023-03-19T09:15:44.645Z,70.00
2023-03-19T09:18:11.165Z,69.80
2023-03-19T09:20:37.655Z,69.60
2023-03-19T09:23:04.131Z,69.80
2023-03-19T09:25:30.622Z,69.40
2023-03-19T09:27:57.104Z,69.50
2023-03-19T09:30:23.634Z,69.20
2023-03-19T09:32:50.205Z,69.40
2023-03-19T09:35:16.725Z,68.70
2023-03-19T09:37:43.192Z,69.40
2023-03-19T09:40:09.695Z,69.30
2023-03-19T09:42:36.175Z,69.60
2023-03-19T09:45:02.680Z,69.60
2023-03-19T09:47:29.164Z,69.60
2023-03-19T09:49:55.657Z,69.20
2023-03-19T09:52:22.147Z,69.20
2023-03-19T09:54:48.648Z,69.40
2023-03-19T09:57:15.208Z,69.20
2023-03-19T09:59:41.687Z,69.20
2023-03-19T10:02:08.206Z,67.80
2023-03-19T10:04:39.591Z,67.10
2023-03-19T10:07:06.125Z,67.60
2023-03-19T10:09:32.619Z,68.10
2023-03-19T10:11:59.105Z,68.30
2023-03-19T10:14:25.580Z,68.60
2023-03-19T10:16:52.100Z,67.90
2023-03-19T10:19:18.603Z,68.80
2023-03-19T10:21:45.107Z,67.80
2023-03-19T10:24:11.586Z,68.70
2023-03-19T10:26:38.073Z,69.00
2023-03-19T10:29:04.555Z,68.90
2023-03-19T10:31:31.082Z,69.10
2023-03-19T10:33:57.637Z,68.90
2023-03-19T10:36:24.189Z,68.60
2023-03-19T10:38:50.710Z,69.00
2023-03-19T10:41:17.212Z,68.50
2023-03-19T10:43:43.704Z,68.00
2023-03-19T10:46:10.230Z,68.70
2023-03-19T10:48:36.753Z,68.80
2023-03-19T10:51:03.244Z,69.20
2023-03-19T10:53:29.727Z,68.30
2023-03-19T10:55:56.220Z,69.00
2023-03-19T10:58:22.817Z,69.10
2023-03-19T11:00:49.338Z,68.80
2023-03-19T11:03:15.896Z,69.30
2023-03-19T11:05:42.381Z,67.40
2023-03-19T11:08:08.864Z,67.20
2023-03-19T11:10:35.345Z,68.10
2023-03-19T11:13:01.818Z,68.50
2023-03-19T11:15:28.322Z,68.60
2023-03-19T11:17:54.805Z,66.90
2023-03-19T11:20:21.301Z,67.60
2023-03-19T11:22:47.785Z,68.90
2023-03-19T11:25:14.267Z,66.80
2023-03-19T11:27:40.758Z,67.10
2023-03-19T11:30:07.245Z,66.70
2023-03-19T11:32:33.807Z,67.70
2023-03-19T11:35:00.391Z,67.40
2023-03-19T11:37:26.869Z,68.10
2023-03-19T11:39:53.355Z,67.80
2023-03-19T11:42:19.851Z,68.40
2023-03-19T11:44:46.324Z,67.80
2023-03-19T11:47:26.482Z,68.40
2023-03-19T11:49:53.800Z,66.90
2023-03-19T11:52:20.292Z,68.00
2023-03-19T11:54:46.782Z,67.10
2023-03-19T11:57:13.321Z,68.30
2023-03-19T11:59:39.805Z,68.20
2023-03-19T12:02:06.331Z,67.30
2023-03-19T12:04:32.811Z,68.30
2023-03-19T12:06:59.291Z,67.90
2023-03-19T12:09:25.761Z,68.90
2023-03-19T12:11:52.274Z,68.30
2023-03-19T12:14:18.750Z,68.80
2023-03-19T12:16:46.345Z,68.10
2023-03-19T12:19:13.161Z,68.70
2023-03-19T12:21:39.681Z,68.30
2023-03-19T12:24:06.183Z,68.90
2023-03-19T12:26:32.706Z,68.10
2023-03-19T12:28:59.181Z,69.50
2023-03-19T12:31:25.763Z,68.70
2023-03-19T12:33:52.258Z,68.30
2023-03-19T12:36:18.792Z,68.10
2023-03-19T12:38:45.315Z,68.20
2023-03-19T12:41:11.917Z,68.00
2023-03-19T12:43:38.384Z,68.60
2023-03-19T12:46:04.912Z,68.70
2023-03-19T12:48:31.399Z,67.90
2023-03-19T12:50:57.894Z,67.60
2023-03-19T12:53:24.377Z,67.90
2023-03-19T12:55:50.888Z,68.00
2023-03-19T12:58:21.855Z,67.20
2023-03-19T13:00:48.371Z,67.00
2023-03-19T13:03:14.861Z,68.10
2023-03-19T13:05:41.368Z,67.00
2023-03-19T13:08:07.857Z,66.80
2023-03-19T13:10:34.564Z,67.30
2023-03-19T13:13:01.179Z,66.90
2023-03-19T13:15:27.680Z,67.00
2023-03-19T13:17:54.166Z,67.20
2023-03-19T13:20:20.705Z,66.90
2023-03-19T13:22:47.196Z,66.80
2023-03-19T13:25:13.703Z,66.80
2023-03-19T13:27:40.220Z,66.60
2023-03-19T13:30:06.739Z,66.50
2023-03-19T13:32:33.264Z,66.50
2023-03-19T13:34:59.754Z,66.50
2023-03-19T13:37:26.248Z,66.50
2023-03-19T13:39:52.726Z,67.00
2023-03-19T13:42:19.210Z,66.60
2023-03-19T13:44:45.694Z,66.60
2023-03-19T13:47:12.197Z,67.20
2023-03-19T13:49:38.695Z,66.80
2023-03-19T13:52:05.198Z,66.80
2023-03-19T13:54:31.698Z,66.70
2023-03-19T13:56:58.168Z,67.20
2023-03-19T13:59:24.645Z,66.70
2023-03-19T14:01:51.148Z,66.50
2023-03-19T14:04:17.650Z,67.80
2023-03-19T14:06:44.135Z,67.00
2023-03-19T14:09:10.622Z,67.40
2023-03-19T14:11:37.125Z,67.70
2023-03-19T14:14:03.611Z,66.70
2023-03-19T14:16:30.147Z,67.20
2023-03-19T14:18:57.662Z,66.60
2023-03-19T14:21:24.173Z,66.60
2023-03-19T14:23:52.626Z,67.50
2023-03-19T14:26:19.508Z,67.00
2023-03-19T14:28:46.001Z,66.50
2023-03-19T14:31:12.568Z,66.50
2023-03-19T14:33:39.109Z,66.40
2023-03-19T14:36:05.653Z,66.40
2023-03-19T14:38:32.150Z,66.70
2023-03-19T14:40:58.663Z,66.60
2023-03-19T14:43:25.150Z,67.40
2023-03-19T14:45:51.712Z,66.70
2023-03-19T14:48:18.204Z,66.70
2023-03-19T14:50:44.727Z,68.20
2023-03-19T14:53:11.206Z,66.70
2023-03-19T14:55:37.958Z,67.00
2023-03-19T14:58:04.595Z,67.10
2023-03-19T15:00:31.098Z,67.30
2023-03-19T15:02:57.583Z,66.90
2023-03-19T15:05:26.813Z,67.10
2023-03-19T15:07:53.288Z,68.40
2023-03-19T15:10:19.775Z,67.10
2023-03-19T15:12:46.263Z,66.70
2023-03-19T15:15:15.773Z,66.70
2023-03-19T15:17:43.751Z,66.80
2023-03-19T15:20:11.728Z,66.80
2023-03-19T15:22:38.226Z,66.70
2023-03-19T15:25:05.416Z,66.80
2023-03-19T15:27:31.937Z,66.70
2023-03-19T15:30:10.641Z,68.00
2023-03-19T15:32:56.488Z,67.60
2023-03-19T15:35:27.104Z,68.10
2023-03-19T15:37:53.582Z,67.70
2023-03-19T15:40:20.110Z,68.90
2023-03-19T15:42:46.598Z,68.30
2023-03-19T15:45:13.116Z,67.60
2023-03-19T15:47:39.613Z,69.50
2023-03-19T15:50:06.128Z,68.40
2023-03-19T15:52:32.625Z,67.90
2023-03-19T15:54:59.121Z,69.60
2023-03-19T15:57:25.609Z,69.00
2023-03-19T15:59:52.108Z,67.80
2023-03-19T16:02:18.618Z,69.00
2023-03-19T16:05:10.221Z,67.60
2023-03-19T16:07:31.635Z,68.60
2023-03-19T16:09:58.120Z,68.10
2023-03-19T16:12:24.606Z,67.80
2023-03-19T16:14:51.099Z,68.30
2023-03-19T16:17:17.597Z,69.00
2023-03-19T16:19:44.098Z,68.20
2023-03-19T16:22:10.591Z,67.60
2023-03-19T16:24:37.092Z,67.80
2023-03-19T16:27:03.586Z,67.60
2023-03-19T16:29:30.067Z,68.10
2023-03-19T16:31:56.536Z,67.60
2023-03-19T16:34:23.034Z,68.10
2023-03-19T16:36:49.599Z,67.70
2023-03-19T16:39:16.105Z,67.70
2023-03-19T16:41:42.620Z,67.70
2023-03-19T16:44:09.121Z,68.30
2023-03-19T16:46:35.749Z,68.70
2023-03-19T16:49:02.278Z,68.20
2023-03-19T16:51:28.771Z,68.20
2023-03-19T16:53:55.264Z,68.20
2023-03-19T16:56:21.792Z,68.70
2023-03-19T16:58:48.344Z,68.10
2023-03-19T17:01:14.952Z,67.70
2023-03-19T17:03:41.504Z,67.80
2023-03-19T17:06:08.023Z,67.70
2023-03-19T17:08:34.532Z,67.60
2023-03-19T17:11:01.039Z,67.50
2023-03-19T17:13:27.506Z,67.50
2023-03-19T17:15:54.053Z,67.50
2023-03-19T17:18:20.568Z,67.60
2023-03-19T17:20:47.039Z,67.50
2023-03-19T17:23:13.631Z,67.50
2023-03-19T17:25:40.215Z,67.40
2023-03-19T17:28:06.693Z,67.70
2023-03-19T17:30:33.392Z,67.50
2023-03-19T17:33:00.180Z,67.40
2023-03-19T17:35:26.749Z,67.40
2023-03-19T17:37:53.238Z,67.50
2023-03-19T17:40:19.753Z,67.50
2023-03-19T17:42:46.477Z,68.00
2023-03-19T17:45:12.972Z,67.60
2023-03-19T17:47:39.616Z,67.40
2023-03-19T17:50:06.144Z,68.10
2023-03-19T17:52:32.639Z,67.40
2023-03-19T17:54:59.170Z,67.40
2023-03-19T17:57:25.661Z,67.40
2023-03-19T17:59:52.156Z,67.40
2023-03-19T18:02:18.641Z,67.50
2023-03-19T18:04:45.156Z,67.50
2023-03-19T18:07:11.645Z,67.40
2023-03-19T18:09:39.877Z,67.40
2023-03-19T18:12:06.359Z,67.30
2023-03-19T18:14:32.837Z,67.40
2023-03-19T18:16:59.336Z,67.30
2023-03-19T18:19:25.826Z,67.40
2023-03-19T18:21:52.312Z,67.40
2023-03-19T18:24:18.788Z,67.40
2023-03-19T18:26:45.291Z,67.30
2023-03-19T18:29:11.749Z,67.40
2023-03-19T18:31:38.303Z,67.50
2023-03-19T18:34:04.840Z,67.40
2023-03-19T18:36:32.486Z,67.40
2023-03-19T18:38:58.985Z,67.30
2023-03-19T18:41:25.535Z,67.40
2023-03-19T18:43:52.041Z,67.30
2023-03-19T18:46:18.651Z,67.40
2023-03-19T18:48:45.200Z,67.50
2023-03-19T18:51:11.690Z,67.60
2023-03-19T18:53:38.182Z,67.50
2023-03-19T18:56:04.677Z,67.50
2023-03-19T18:58:31.151Z,67.40
2023-03-19T19:00:57.686Z,67.50
2023-03-19T19:03:24.220Z,67.60
2023-03-19T19:05:50.715Z,67.60
2023-03-19T19:08:17.187Z,67.60
2023-03-19T19:10:43.688Z,67.40
2023-03-19T19:13:10.159Z,67.40
2023-03-19T19:15:36.656Z,67.50
2023-03-19T19:18:03.140Z,67.30
2023-03-19T19:20:34.214Z,67.50
2023-03-19T19:23:00.804Z,67.60
2023-03-19T19:25:27.305Z,67.50
2023-03-19T19:27:53.809Z,67.40
2023-03-19T19:30:20.325Z,67.40
2023-03-19T19:32:46.873Z,67.40
2023-03-19T19:35:13.382Z,67.60
2023-03-19T19:37:39.877Z,67.40
2023-03-19T19:40:06.384Z,67.40
2023-03-19T19:42:32.889Z,67.50
2023-03-19T19:44:59.355Z,67.60
2023-03-19T19:47:25.852Z,67.40
2023-03-19T19:49:52.357Z,67.60
2023-03-19T19:52:18.870Z,68.30
2023-03-19T19:54:45.379Z,67.90
2023-03-19T19:57:11.863Z,68.00
2023-03-19T19:59:38.336Z,67.80
2023-03-19T20:02:04.834Z,67.80
2023-03-19T20:04:31.327Z,67.70
2023-03-19T20:06:57.806Z,68.20
2023-03-19T20:09:24.274Z,68.50
2023-03-19T20:11:50.777Z,67.80
2023-03-19T20:14:17.262Z,69.40
2023-03-19T20:16:43.743Z,69.50
2023-03-19T20:19:10.228Z,70.00
2023-03-19T20:21:36.732Z,70.40
2023-03-19T20:24:03.223Z,69.80
2023-03-19T20:26:29.709Z,70.20
2023-03-19T20:28:56.287Z,70.00
2023-03-19T20:31:22.796Z,70.40
2023-03-19T20:33:49.344Z,70.70
2023-03-19T20:36:15.822Z,70.90
2023-03-19T20:38:42.290Z,71.60
2023-03-19T20:41:08.732Z,70.70
2023-03-19T20:43:35.255Z,71.10
2023-03-19T20:46:01.831Z,70.70
2023-03-19T20:48:28.406Z,70.90
2023-03-19T20:50:54.947Z,70.60
2023-03-19T20:53:21.469Z,70.70
2023-03-19T20:55:47.992Z,71.00
2023-03-19T20:58:14.499Z,71.50
2023-03-19T21:00:41.022Z,71.50
2023-03-19T21:03:07.559Z,71.60
2023-03-19T21:05:34.289Z,71.80
2023-03-19T21:08:00.923Z,71.70
2023-03-19T21:10:27.413Z,71.50
2023-03-19T21:12:53.903Z,71.20
2023-03-19T21:15:20.377Z,71.80
2023-03-19T21:17:46.890Z,71.80
2023-03-19T21:20:13.387Z,71.80
2023-03-19T21:22:39.869Z,71.90
2023-03-19T21:25:06.376Z,71.20
2023-03-19T21:27:32.863Z,71.00
2023-03-19T21:29:59.374Z,71.30
2023-03-19T21:32:25.858Z,71.30
2023-03-19T21:34:52.334Z,70.80
2023-03-19T21:37:18.842Z,70.30
2023-03-19T21:39:45.328Z,70.40
2023-03-19T21:42:11.820Z,70.50
2023-03-19T21:44:38.303Z,70.50
2023-03-19T21:47:04.861Z,70.30
2023-03-19T21:49:31.352Z,70.30
2023-03-19T21:51:57.860Z,70.30
2023-03-19T21:54:24.349Z,70.10
2023-03-19T21:56:50.873Z,70.20
2023-03-19T21:59:17.364Z,70.20
2023-03-19T22:01:43.853Z,70.20
2023-03-19T22:04:10.493Z,70.40
2023-03-19T22:06:37.023Z,70.20
2023-03-19T22:09:03.503Z,70.20
2023-03-19T22:11:29.996Z,70.10
2023-03-19T22:13:56.484Z,70.20
2023-03-19T22:16:23.109Z,70.10
2023-03-19T22:18:49.668Z,70.30
2023-03-19T22:21:16.158Z,70.20
2023-03-19T22:23:42.631Z,70.30
2023-03-19T22:26:09.115Z,70.30
2023-03-19T22:28:35.601Z,70.20
2023-03-19T22:31:02.089Z,70.30
2023-03-19T22:33:28.640Z,70.30
2023-03-19T22:35:55.142Z,70.40
2023-03-19T22:38:21.645Z,70.50
2023-03-19T22:40:48.185Z,70.40
2023-03-19T22:43:14.665Z,70.40
2023-03-19T22:45:41.213Z,70.20
2023-03-19T22:48:07.701Z,70.10
2023-03-19T22:50:34.211Z,70.10
2023-03-19T22:53:00.697Z,70.30
2023-03-19T22:55:27.211Z,70.30
2023-03-19T22:57:53.708Z,70.10
2023-03-19T23:00:20.199Z,70.10
2023-03-19T23:02:46.684Z,70.10
2023-03-19T23:05:13.182Z,70.00
2023-03-19T23:07:39.664Z,70.30
2023-03-19T23:10:06.144Z,70.40
2023-03-19T23:12:32.631Z,70.30
2023-03-19T23:14:59.120Z,70.30
2023-03-19T23:17:25.613Z,70.10
2023-03-19T23:19:52.096Z,70.10
2023-03-19T23:22:18.588Z,70.10
2023-03-19T23:24:45.106Z,70.00
2023-03-19T23:27:11.593Z,70.30
2023-03-19T23:29:38.076Z,70.20
2023-03-19T23:32:04.598Z,70.00
2023-03-19T23:34:33.585Z,70.10
2023-03-19T23:37:01.962Z,69.80
2023-03-19T23:39:28.465Z,69.90
2023-03-19T23:41:54.940Z,69.90
2023-03-19T23:44:21.422Z,69.90
2023-03-19T23:46:47.924Z,69.80
2023-03-19T23:49:14.406Z,69.80
2023-03-19T23:51:40.900Z,69.70
2023-03-19T23:54:07.398Z,69.90
2023-03-19T23:56:33.888Z,69.80
2023-03-19T23:59:00.388Z,69.80
